METAR Data
IDs: Format: Raw Decoded Include TAF

Data at: 0748 UTC 03 Aug 2021

KONT 030653Z 00000KT 10SM CLR 27/07 A2999 RMK AO2 SLP133 T02670067
KONT 030553Z 00000KT 10SM CLR 27/06 A2999 RMK AO2 SLP134 T02720061 10378 20267 50009
KONT 030453Z 25003KT 10SM CLR 28/06 A2999 RMK AO2 SLP135 T02830056
KONT 030353Z 25005KT 10SM CLR 29/04 A2998 RMK AO2 SLP132 T02940044
KONT 030253Z 23009KT 10SM CLR 32/04 A2996 RMK AO2 SLP125 T03170039 53008
KONT 030153Z 24009KT 10SM CLR 35/01 A2995 RMK AO2 SLP119 T03500006
KONT 030053Z 25012KT 10SM CLR 37/M02 A2994 RMK AO2 SLP116 T03721017
KONT 022353Z 24012G20KT 10SM CLR 38/03 A2994 RMK AO2 SLP115 T03780033 10400 20322 56014
KONT 022253Z 24013KT 10SM CLR 39/05 A2994 RMK AO2 SLP116 T03940050
KONT 022153Z 26013KT 10SM CLR 40/03 A2997 RMK AO2 SLP124 T04000028
KONT 022053Z 26011KT 10SM CLR 39/07 A2998 RMK AO2 SLP128 FU S T03890067 56023
KONT 021953Z 24010KT 10SM CLR 38/05 A3000 RMK AO2 SLP134 T03780050
KONT 021853Z 18004KT 9SM CLR 35/06 A3002 RMK AO2 SLP145 T03500061
KONT 021753Z 00000KT 9SM CLR 32/08 A3005 RMK AO2 SLP154 T03220078 10328 20217 58009
KONT 021653Z 00000KT 10SM CLR 30/08 A3006 RMK AO2 SLP158 T03000078
KONT 021553Z VRB03KT 10SM CLR 28/09 A3007 RMK AO2 SLP164 T02780094
KONT 021453Z 00000KT 10SM CLR 24/09 A3007 RMK AO2 SLP166 T02440094 53015
KONT 021353Z 00000KT 10SM CLR 23/09 A3006 RMK AO2 SLP159 T02330094
KONT 021253Z 00000KT 10SM CLR 23/09 A3004 RMK AO2 SLP153 T02280089
KONT 021153Z 00000KT 10SM CLR 23/10 A3003 RMK AO2 SLP147 T02280100 10256 20217 55001
KONT 021053Z 00000KT 10SM CLR 23/10 A3002 RMK AO2 SLP146 T02280100
KONT 020953Z 00000KT 10SM CLR 23/09 A3002 RMK AO2 SLP146 T02330089
KONT 020853Z 00000KT 10SM CLR 24/09 A3003 RMK AO2 SLP147 T02440089 58004
KONT 020753Z 00000KT 10SM CLR 24/08 A3004 RMK AO2 SLP151 T02390083 403720206
KONT 020653Z 00000KT 10SM CLR 25/08 A3004 RMK AO2 SLP153 T02500083
KONT 020553Z 23003KT 10SM CLR 25/08 A3004 RMK AO2 SLP153 T02500078 10356 20250 51012
KONT 020453Z 23006KT 10SM CLR 27/08 A3004 RMK AO2 SLP155 T02670078
KONT 020353Z 25007KT 10SM CLR 27/06 A3002 RMK AO2 SLP149 T02720061
KONT 020253Z 26010KT 10SM CLR 29/06 A3001 RMK AO2 SLP144 T02890061 53005
KONT 020153Z 27014KT 10SM FEW025 32/03 A2999 RMK AO2 SLP138 FU FEW025 T03220033
KONT 020053Z 24011G20KT 10SM FEW120 34/07 A2998 RMK AO2 SLP133 T03390072
KONT 012353Z 26014KT 10SM FEW120 36/10 A2999 RMK AO2 SLP135 T03560100 10372 20306 56007
KONT 012253Z 25013KT 10SM FEW120 37/11 A3000 RMK AO2 SLP136 T03670111
KONT 012153Z 24013G18KT 10SM FEW120 36/10 A3000 RMK AO2 SLP138 T03610100
KONT 012053Z 27009KT 10SM FEW120 37/08 A3001 RMK AO2 SLP141 T03670083 56018
KONT 011953Z 24007KT 10SM FEW120 35/07 A3003 RMK AO2 SLP146 T03500067